createdAt,value
2018-03-04T00:00:18.382Z,0
2018-03-04T00:01:17.825Z,0
2018-03-04T00:02:17.831Z,0
2018-03-04T00:03:18.405Z,0
2018-03-04T00:04:18.419Z,0
2018-03-04T00:05:18.428Z,0
2018-03-04T00:06:18.143Z,0
2018-03-04T00:07:17.867Z,0
2018-03-04T00:08:17.886Z,0
2018-03-04T00:09:18.457Z,0
2018-03-04T00:10:17.896Z,0
2018-03-04T00:11:18.469Z,0
2018-03-04T00:12:18.220Z,0
2018-03-04T00:13:17.914Z,0
2018-03-04T00:14:18.203Z,0
2018-03-04T00:15:18.539Z,0
2018-03-04T00:16:18.547Z,0
2018-03-04T00:17:18.225Z,0
2018-03-04T00:18:17.953Z,0
2018-03-04T00:19:18.524Z,0
2018-03-04T00:20:18.529Z,0
2018-03-04T00:21:17.979Z,0
2018-03-04T00:22:18.263Z,0
2018-03-04T00:23:18.271Z,0
2018-03-04T00:24:18.553Z,0
2018-03-04T00:25:18.566Z,0
2018-03-04T00:26:18.007Z,0
2018-03-04T00:27:18.584Z,0
2018-03-04T00:28:18.312Z,0
2018-03-04T00:29:18.595Z,0
2018-03-04T00:30:18.353Z,0
2018-03-04T00:31:18.327Z,0
2018-03-04T00:32:18.336Z,0
2018-03-04T00:33:18.055Z,0
2018-03-04T00:34:18.069Z,0
2018-03-04T00:35:18.074Z,0
2018-03-04T00:36:18.129Z,0
2018-03-04T00:37:18.370Z,0
2018-03-04T00:38:18.097Z,0
2018-03-04T00:39:18.679Z,0
2018-03-04T00:40:18.113Z,0
2018-03-04T00:41:18.130Z,0
2018-03-04T00:42:18.130Z,0
2018-03-04T00:43:17.848Z,0
2018-03-04T00:44:18.432Z,0
2018-03-04T00:45:18.429Z,0
2018-03-04T00:46:18.493Z,0
2018-03-04T00:47:18.168Z,0
2018-03-04T00:48:18.176Z,0
2018-03-04T00:49:18.176Z,0
2018-03-04T00:50:18.195Z,0
2018-03-04T00:51:18.816Z,0
2018-03-04T00:52:18.515Z,0
2018-03-04T00:53:18.212Z,0
2018-03-04T00:54:18.503Z,0
2018-03-04T00:55:18.226Z,0
2018-03-04T00:56:18.512Z,0
2018-03-04T00:57:18.246Z,0
2018-03-04T00:58:18.530Z,0
2018-03-04T00:59:18.547Z,0
2018-03-04T01:00:18.830Z,0
2018-03-04T01:01:18.839Z,0
2018-03-04T01:02:18.853Z,0
2018-03-04T01:03:18.569Z,0
2018-03-04T01:04:18.011Z,0
2018-03-04T01:05:18.299Z,0
2018-03-04T01:06:18.649Z,0
2018-03-04T01:07:18.312Z,0
2018-03-04T01:08:18.895Z,0
2018-03-04T01:09:18.327Z,0
2018-03-04T01:10:18.911Z,0
2018-03-04T01:11:18.409Z,0
2018-03-04T01:12:18.641Z,0
2018-03-04T01:13:18.074Z,0
2018-03-04T01:14:18.371Z,0
2018-03-04T01:15:18.676Z,0
2018-03-04T01:16:18.099Z,0
2018-03-04T01:17:18.723Z,0
2018-03-04T01:18:18.109Z,0
2018-03-04T01:19:18.971Z,0
2018-03-04T01:20:18.699Z,0
2018-03-04T01:21:18.706Z,0
2018-03-04T01:22:25.652Z,0
2018-03-04T01:23:18.995Z,0
2018-03-04T01:24:18.454Z,0
2018-03-04T01:25:19.017Z,0
2018-03-04T01:26:18.738Z,0
2018-03-04T01:27:19.091Z,0
2018-03-04T01:28:18.467Z,0
2018-03-04T01:29:18.959Z,0
2018-03-04T01:30:19.057Z,0
2018-03-04T01:31:19.071Z,0
2018-03-04T01:32:18.831Z,0
2018-03-04T01:33:18.218Z,0
2018-03-04T01:34:19.010Z,0
2018-03-04T01:35:18.520Z,0
2018-03-04T01:36:18.528Z,0
2018-03-04T01:37:19.160Z,0
2018-03-04T01:38:18.259Z,0
2018-03-04T01:39:18.270Z,0
2018-03-04T01:40:18.584Z,0
2018-03-04T01:41:18.564Z,0
2018-03-04T01:42:19.204Z,0
2018-03-04T01:43:18.872Z,0
2018-03-04T01:44:18.891Z,0
2018-03-04T01:45:18.875Z,0
2018-03-04T01:46:18.891Z,0
2018-03-04T01:47:18.663Z,0
2018-03-04T01:48:18.917Z,0
2018-03-04T01:49:19.194Z,0
2018-03-04T01:50:18.355Z,0
2018-03-04T01:51:18.925Z,0
2018-03-04T01:52:19.258Z,0
2018-03-04T01:53:18.653Z,0
2018-03-04T01:54:18.667Z,0
2018-03-04T01:55:19.237Z,0
2018-03-04T01:56:18.684Z,0
2018-03-04T01:57:19.026Z,0
2018-03-04T01:58:18.415Z,0
2018-03-04T01:59:19.268Z,0
2018-03-04T02:00:18.146Z,0
2018-03-04T02:01:19.285Z,0
2018-03-04T02:02:19.348Z,0
2018-03-04T02:03:19.012Z,0
2018-03-04T02:04:18.739Z,0
2018-03-04T02:05:19.036Z,0
2018-03-04T02:06:19.047Z,0
2018-03-04T02:07:18.970Z,0
2018-03-04T02:08:18.499Z,0
2018-03-04T02:09:18.782Z,0
2018-03-04T02:10:19.352Z,0
2018-03-04T02:11:19.084Z,0
2018-03-04T02:12:19.153Z,0
2018-03-04T02:13:18.819Z,0
2018-03-04T02:14:18.529Z,0
2018-03-04T02:15:18.857Z,0
2018-03-04T02:16:18.550Z,0
2018-03-04T02:17:18.909Z,0
2018-03-04T02:18:19.130Z,0
2018-03-04T02:19:19.150Z,0
2018-03-04T02:20:19.142Z,0
2018-03-04T02:21:18.870Z,0
2018-03-04T02:22:19.037Z,0
2018-03-04T02:23:19.170Z,0
2018-03-04T02:24:19.177Z,0
2018-03-04T02:25:19.192Z,0
2018-03-04T02:26:19.221Z,0
2018-03-04T02:27:18.968Z,0
2018-03-04T02:28:19.208Z,0
2018-03-04T02:29:19.227Z,0
2018-03-04T02:30:18.958Z,0
2018-03-04T02:31:19.541Z,0
2018-03-04T02:32:19.293Z,0
2018-03-04T02:33:18.998Z,0
2018-03-04T02:34:19.296Z,0
2018-03-04T02:35:18.979Z,0
2018-03-04T02:36:19.269Z,0
2018-03-04T02:37:19.638Z,0
2018-03-04T02:38:19.029Z,0
2018-03-04T02:39:19.029Z,0
2018-03-04T02:40:19.599Z,0
2018-03-04T02:41:19.052Z,0
2018-03-04T02:42:19.054Z,0
2018-03-04T02:43:19.684Z,0
2018-03-04T02:44:19.346Z,0
2018-03-04T02:45:19.352Z,0
2018-03-04T02:46:19.351Z,0
2018-03-04T02:47:19.358Z,0
2018-03-04T02:48:19.413Z,0
2018-03-04T02:49:19.371Z,0
2018-03-04T02:50:19.390Z,0
2018-03-04T02:51:19.429Z,0
2018-03-04T02:52:19.111Z,0
2018-03-04T02:53:19.463Z,0
2018-03-04T02:54:19.130Z,0
2018-03-04T02:55:19.455Z,0
2018-03-04T02:56:19.432Z,0
2018-03-04T02:57:20.083Z,0
2018-03-04T02:58:19.870Z,0
2018-03-04T02:59:20.390Z,0
2018-03-04T03:00:20.104Z,0
2018-03-04T03:01:19.537Z,0
2018-03-04T03:02:20.144Z,0
2018-03-04T03:03:20.676Z,0
2018-03-04T03:04:20.801Z,0
2018-03-04T03:05:19.509Z,0
2018-03-04T03:06:19.520Z,0
2018-03-04T03:07:19.813Z,0
2018-03-04T03:08:19.528Z,0
2018-03-04T03:09:19.816Z,0
2018-03-04T03:10:19.807Z,0
2018-03-04T03:11:19.527Z,0
2018-03-04T03:12:19.376Z,0
2018-03-04T03:13:19.315Z,0
2018-03-04T03:14:19.986Z,0
2018-03-04T03:15:20.181Z,0
2018-03-04T03:16:19.439Z,0
2018-03-04T03:17:19.574Z,0
2018-03-04T03:18:19.921Z,0
2018-03-04T03:19:19.322Z,0
2018-03-04T03:20:19.314Z,0
2018-03-04T03:21:19.610Z,0
2018-03-04T03:22:19.584Z,0
2018-03-04T03:23:19.959Z,0
2018-03-04T03:24:19.914Z,0
2018-03-04T03:25:19.364Z,0
2018-03-04T03:26:19.361Z,0
2018-03-04T03:27:19.939Z,0
2018-03-04T03:28:20.006Z,0
2018-03-04T03:29:19.672Z,0
2018-03-04T03:30:20.018Z,0
2018-03-04T03:31:19.992Z,0
2018-03-04T03:32:19.414Z,0
2018-03-04T03:33:19.133Z,0
2018-03-04T03:34:19.455Z,0
2018-03-04T03:35:20.555Z,0
2018-03-04T03:36:19.451Z,0
2018-03-04T03:37:19.736Z,0
2018-03-04T03:38:19.330Z,0
2018-03-04T03:39:20.035Z,0
2018-03-04T03:40:19.758Z,0
2018-03-04T03:41:19.193Z,0
2018-03-04T03:42:19.480Z,0
2018-03-04T03:43:19.495Z,0
2018-03-04T03:44:19.289Z,0
2018-03-04T03:45:19.507Z,0
2018-03-04T03:46:20.348Z,0
2018-03-04T03:47:20.402Z,0
2018-03-04T03:48:19.708Z,0
2018-03-04T03:49:19.824Z,0
2018-03-04T03:50:19.828Z,0
2018-03-04T03:51:19.836Z,0
2018-03-04T03:52:19.842Z,0
2018-03-04T03:53:19.909Z,0
2018-03-04T03:54:19.578Z,0
2018-03-04T03:55:19.593Z,0
2018-03-04T03:56:19.871Z,0
2018-03-04T03:57:20.212Z,0
2018-03-04T03:58:19.891Z,0
2018-03-04T03:59:19.659Z,0
2018-03-04T04:00:19.904Z,0
2018-03-04T04:01:19.907Z,0
2018-03-04T04:02:19.637Z,0
2018-03-04T04:03:19.360Z,0
2018-03-04T04:04:19.696Z,0
2018-03-04T04:05:19.943Z,0
2018-03-04T04:06:19.950Z,0
2018-03-04T04:07:19.956Z,0
2018-03-04T04:08:19.969Z,0
2018-03-04T04:09:19.453Z,0
2018-03-04T04:10:19.701Z,0
2018-03-04T04:11:19.712Z,0
2018-03-04T04:12:19.999Z,0
2018-03-04T04:13:19.717Z,0
2018-03-04T04:14:20.064Z,0
2018-03-04T04:15:20.325Z,0
2018-03-04T04:16:19.737Z,0
2018-03-04T04:17:19.762Z,0
2018-03-04T04:18:20.041Z,0
2018-03-04T04:19:20.098Z,0
2018-03-04T04:20:20.055Z,0
2018-03-04T04:21:20.078Z,0
2018-03-04T04:22:19.788Z,0
2018-03-04T04:23:19.795Z,0
2018-03-04T04:24:20.139Z,0
2018-03-04T04:25:20.326Z,0
2018-03-04T04:26:20.385Z,0
2018-03-04T04:27:19.820Z,0
2018-03-04T04:28:19.553Z,0
2018-03-04T04:29:20.169Z,0
2018-03-04T04:30:20.138Z,0
2018-03-04T04:31:20.165Z,0
2018-03-04T04:32:20.435Z,0
2018-03-04T04:33:20.147Z,0
2018-03-04T04:34:20.210Z,0
2018-03-04T04:35:19.611Z,0
2018-03-04T04:36:19.897Z,0
2018-03-04T04:37:19.909Z,0
2018-03-04T04:38:19.912Z,0
2018-03-04T04:39:19.965Z,0
2018-03-04T04:40:20.489Z,0
2018-03-04T04:41:19.652Z,0
2018-03-04T04:42:19.934Z,0
2018-03-04T04:43:19.666Z,0
2018-03-04T04:44:19.534Z,0
2018-03-04T04:45:20.244Z,0
2018-03-04T04:46:20.252Z,0
2018-03-04T04:47:19.979Z,0
2018-03-04T04:48:20.145Z,0
2018-03-04T04:49:20.288Z,0
2018-03-04T04:50:20.004Z,0
2018-03-04T04:51:20.002Z,0
2018-03-04T04:52:20.297Z,0
2018-03-04T04:53:20.307Z,0
2018-03-04T04:54:20.310Z,0
2018-03-04T04:55:20.321Z,0
2018-03-04T04:56:20.044Z,0
2018-03-04T04:57:20.060Z,0
2018-03-04T04:58:22.177Z,0
2018-03-04T04:59:20.396Z,0
2018-03-04T05:00:19.793Z,0
2018-03-04T05:01:20.363Z,0
2018-03-04T05:02:20.377Z,0
2018-03-04T05:03:20.384Z,0
2018-03-04T05:04:20.403Z,0
2018-03-04T05:05:19.832Z,0
2018-03-04T05:06:20.404Z,0
2018-03-04T05:07:19.847Z,0
2018-03-04T05:08:20.414Z,0
2018-03-04T05:09:20.427Z,0
2018-03-04T05:10:20.445Z,0
2018-03-04T05:11:20.160Z,0
2018-03-04T05:12:20.162Z,0
2018-03-04T05:13:20.468Z,0
2018-03-04T05:14:20.471Z,0
2018-03-04T05:15:20.772Z,0
2018-03-04T05:16:20.679Z,0
2018-03-04T05:17:20.772Z,0
2018-03-04T05:18:19.951Z,0
2018-03-04T05:19:20.548Z,0
2018-03-04T05:20:20.516Z,0
2018-03-04T05:21:20.234Z,0
2018-03-04T05:22:20.531Z,0
2018-03-04T05:23:20.528Z,0
2018-03-04T05:24:20.602Z,0
2018-03-04T05:25:20.586Z,0
2018-03-04T05:26:20.271Z,0
2018-03-04T05:27:20.559Z,0
2018-03-04T05:28:20.888Z,0
2018-03-04T05:29:20.583Z,0
2018-03-04T05:30:20.581Z,0
2018-03-04T05:31:20.316Z,0
2018-03-04T05:32:19.749Z,0
2018-03-04T05:33:20.608Z,0
2018-03-04T05:34:20.619Z,0
2018-03-04T05:35:20.625Z,0
2018-03-04T05:36:20.648Z,0
2018-03-04T05:37:20.073Z,0
2018-03-04T05:38:20.368Z,0
2018-03-04T05:39:20.713Z,0
2018-03-04T05:40:20.948Z,0
2018-03-04T05:41:20.684Z,0
2018-03-04T05:42:20.679Z,0
2018-03-04T05:43:19.833Z,0
2018-03-04T05:44:20.971Z,0
2018-03-04T05:45:20.981Z,0
2018-03-04T05:46:20.711Z,0
2018-03-04T05:47:20.710Z,0
2018-03-04T05:48:20.449Z,0
2018-03-04T05:49:21.053Z,0
2018-03-04T05:50:20.174Z,0
2018-03-04T05:51:20.472Z,0
2018-03-04T05:52:21.083Z,0
2018-03-04T05:53:21.049Z,0
2018-03-04T05:54:20.534Z,0
2018-03-04T05:55:21.073Z,0
2018-03-04T05:56:20.498Z,0
2018-03-04T05:57:20.522Z,0
2018-03-04T05:58:20.799Z,0
2018-03-04T05:59:20.861Z,0
2018-03-04T06:00:20.526Z,0
2018-03-04T06:01:20.540Z,0
2018-03-04T06:02:20.824Z,0
2018-03-04T06:03:20.840Z,0
2018-03-04T06:04:20.558Z,0
2018-03-04T06:05:20.570Z,0
2018-03-04T06:06:20.875Z,0
2018-03-04T06:07:20.592Z,0
2018-03-04T06:08:20.876Z,0
2018-03-04T06:09:20.613Z,0
2018-03-04T06:10:20.896Z,0
2018-03-04T06:11:20.329Z,0
2018-03-04T06:12:21.483Z,0
2018-03-04T06:13:20.137Z,0
2018-03-04T06:14:20.691Z,0
2018-03-04T06:15:20.924Z,0
2018-03-04T06:16:20.925Z,0
2018-03-04T06:17:20.948Z,0
2018-03-04T06:18:20.661Z,0
2018-03-04T06:19:21.010Z,0
2018-03-04T06:20:20.968Z,0
2018-03-04T06:21:20.693Z,0
2018-03-04T06:22:21.295Z,0
2018-03-04T06:23:21.285Z,0
2018-03-04T06:24:21.290Z,0
2018-03-04T06:25:21.017Z,0
2018-03-04T06:26:20.455Z,0
2018-03-04T06:27:20.776Z,0
2018-03-04T06:28:21.024Z,0
2018-03-04T06:29:20.748Z,0
2018-03-04T06:30:21.041Z,0
2018-03-04T06:31:20.500Z,0
2018-03-04T06:32:21.058Z,0
2018-03-04T06:33:21.066Z,0
2018-03-04T06:34:21.348Z,0
2018-03-04T06:35:21.074Z,0
2018-03-04T06:36:21.369Z,0
2018-03-04T06:37:20.523Z,5
2018-03-04T06:38:21.100Z,5
2018-03-04T06:39:20.831Z,5
2018-03-04T06:40:21.172Z,5
2018-03-04T06:41:20.572Z,5
2018-03-04T06:42:20.277Z,5
2018-03-04T06:43:21.268Z,5
2018-03-04T06:44:21.346Z,5
2018-03-04T06:45:21.197Z,5
2018-03-04T06:46:21.168Z,5
2018-03-04T06:47:21.190Z,5
2018-03-04T06:48:20.898Z,5
2018-03-04T06:49:20.910Z,5
2018-03-04T06:50:20.976Z,5
2018-03-04T06:51:21.206Z,5
2018-03-04T06:52:21.206Z,5
2018-03-04T06:53:20.927Z,5
2018-03-04T06:54:20.945Z,5
2018-03-04T06:55:20.717Z,5
2018-03-04T06:56:21.531Z,5
2018-03-04T06:57:21.524Z,5
2018-03-04T06:58:20.691Z,5
2018-03-04T06:59:20.979Z,5
2018-03-04T07:00:21.607Z,5
2018-03-04T07:01:20.728Z,5
2018-03-04T07:02:20.759Z,5
2018-03-04T07:03:21.302Z,5
2018-03-04T07:04:20.737Z,5
2018-03-04T07:05:21.645Z,5
2018-03-04T07:06:21.312Z,5
2018-03-04T07:07:21.050Z,5
2018-03-04T07:08:21.045Z,5
2018-03-04T07:09:21.058Z,5
2018-03-04T07:10:21.122Z,5
2018-03-04T07:11:21.073Z,5
2018-03-04T07:12:21.081Z,5
2018-03-04T07:13:20.804Z,5
2018-03-04T07:14:21.101Z,5
2018-03-04T07:15:21.148Z,5
2018-03-04T07:16:21.384Z,5
2018-03-04T07:17:21.398Z,5
2018-03-04T07:18:21.695Z,5
2018-03-04T07:19:21.136Z,5
2018-03-04T07:20:21.428Z,5
2018-03-04T07:21:21.730Z,5
2018-03-04T07:22:20.588Z,5
2018-03-04T07:23:21.177Z,5
2018-03-04T07:24:20.887Z,5
2018-03-04T07:25:21.227Z,5
2018-03-04T07:26:21.470Z,5
2018-03-04T07:27:21.485Z,5
2018-03-04T07:28:21.782Z,5
2018-03-04T07:29:21.485Z,5
2018-03-04T07:30:21.554Z,5
2018-03-04T07:31:20.940Z,5
2018-03-04T07:32:21.508Z,5
2018-03-04T07:33:21.599Z,5
2018-03-04T07:34:21.538Z,5
2018-03-04T07:35:21.593Z,5
2018-03-04T07:36:20.980Z,5
2018-03-04T07:37:21.271Z,5
2018-03-04T07:38:20.713Z,5
2018-03-04T07:39:21.285Z,5
2018-03-04T07:40:21.065Z,5
2018-03-04T07:41:21.020Z,5
2018-03-04T07:42:21.591Z,5
2018-03-04T07:43:21.604Z,5
2018-03-04T07:44:21.891Z,5
2018-03-04T07:45:21.666Z,10
2018-03-04T07:46:21.342Z,10
2018-03-04T07:47:21.728Z,10
2018-03-04T07:48:21.355Z,10
2018-03-04T07:49:21.928Z,10
2018-03-04T07:50:21.947Z,10
2018-03-04T07:51:21.381Z,10
2018-03-04T07:52:21.699Z,10
2018-03-04T07:53:20.827Z,10
2018-03-04T07:54:21.118Z,10
2018-03-04T07:55:21.983Z,10
2018-03-04T07:56:21.989Z,10
2018-03-04T07:57:22.003Z,10
2018-03-04T07:58:21.439Z,10
2018-03-04T07:59:21.160Z,10
2018-03-04T08:00:22.061Z,10
2018-03-04T08:01:21.176Z,10
2018-03-04T08:02:22.042Z,10
2018-03-04T08:03:21.755Z,10
2018-03-04T08:04:21.527Z,10
2018-03-04T08:05:21.556Z,10
2018-03-04T08:06:20.938Z,10
2018-03-04T08:07:21.509Z,10
2018-03-04T08:08:21.508Z,10
2018-03-04T08:09:21.521Z,10
2018-03-04T08:10:21.300Z,10
2018-03-04T08:11:21.834Z,10
2018-03-04T08:12:21.826Z,15
2018-03-04T08:13:21.840Z,15
2018-03-04T08:14:21.842Z,15
2018-03-04T08:15:21.338Z,15
2018-03-04T08:16:21.297Z,15
2018-03-04T08:17:21.874Z,15
2018-03-04T08:18:21.598Z,15
2018-03-04T08:19:21.652Z,15
2018-03-04T08:20:21.896Z,15
2018-03-04T08:21:21.618Z,20
2018-03-04T08:22:22.212Z,20
2018-03-04T08:23:21.067Z,20
2018-03-04T08:24:21.928Z,20
2018-03-04T08:25:22.272Z,20
2018-03-04T08:26:21.657Z,20
2018-03-04T08:27:22.234Z,20
2018-03-04T08:28:21.964Z,20
2018-03-04T08:29:21.696Z,20
2018-03-04T08:30:21.740Z,20
2018-03-04T08:31:21.981Z,20
2018-03-04T08:32:21.984Z,20
2018-03-04T08:33:22.014Z,20
2018-03-04T08:34:22.294Z,20
2018-03-04T08:35:22.062Z,20
2018-03-04T08:36:22.021Z,20
2018-03-04T08:37:22.034Z,20
2018-03-04T08:38:21.763Z,20
2018-03-04T08:39:21.774Z,20
2018-03-04T08:40:22.170Z,15
2018-03-04T08:41:22.065Z,15
2018-03-04T08:42:22.085Z,15
2018-03-04T08:43:22.078Z,15
2018-03-04T08:44:21.561Z,15
2018-03-04T08:45:22.150Z,15
2018-03-04T08:46:22.105Z,15
2018-03-04T08:47:21.563Z,15
2018-03-04T08:48:22.122Z,15
2018-03-04T08:49:21.846Z,15
2018-03-04T08:50:22.477Z,15
2018-03-04T08:51:21.589Z,15
2018-03-04T08:52:22.451Z,15
2018-03-04T08:53:22.448Z,15
2018-03-04T08:54:22.174Z,15
2018-03-04T08:55:22.185Z,15
2018-03-04T08:56:22.481Z,15
2018-03-04T08:57:21.914Z,15
2018-03-04T08:58:21.928Z,15
2018-03-04T08:59:22.226Z,15
2018-03-04T09:00:21.989Z,20
2018-03-04T09:01:22.521Z,20
2018-03-04T09:02:21.717Z,20
2018-03-04T09:03:21.966Z,20
2018-03-04T09:04:21.973Z,20
2018-03-04T09:05:22.326Z,20
2018-03-04T09:06:21.997Z,20
2018-03-04T09:07:21.715Z,20
2018-03-04T09:08:22.033Z,20
2018-03-04T09:09:22.189Z,20
2018-03-04T09:10:22.307Z,20
2018-03-04T09:11:21.750Z,20
2018-03-04T09:12:22.606Z,20
2018-03-04T09:13:22.056Z,20
2018-03-04T09:14:22.340Z,20
2018-03-04T09:15:22.122Z,20
2018-03-04T09:16:22.082Z,20
2018-03-04T09:17:22.083Z,20
2018-03-04T09:18:22.656Z,15
2018-03-04T09:19:22.108Z,20
2018-03-04T09:20:21.831Z,20
2018-03-04T09:21:22.405Z,20
2018-03-04T09:22:22.420Z,20
2018-03-04T09:23:21.910Z,20
2018-03-04T09:24:22.158Z,15
2018-03-04T09:25:22.773Z,15
2018-03-04T09:26:22.782Z,15
2018-03-04T09:27:21.607Z,15
2018-03-04T09:28:22.186Z,15
2018-03-04T09:29:21.907Z,15
2018-03-04T09:30:22.768Z,15
2018-03-04T09:31:22.498Z,15
2018-03-04T09:32:22.504Z,15
2018-03-04T09:33:22.521Z,15
2018-03-04T09:34:22.309Z,15
2018-03-04T09:35:22.536Z,15
2018-03-04T09:36:22.022Z,15
2018-03-04T09:37:23.216Z,20
2018-03-04T09:38:22.915Z,20
2018-03-04T09:39:22.567Z,20
2018-03-04T09:40:22.896Z,25
2018-03-04T09:41:22.650Z,25
2018-03-04T09:42:22.886Z,25
2018-03-04T09:43:22.032Z,25
2018-03-04T09:44:22.625Z,25
2018-03-04T09:45:22.333Z,25
2018-03-04T09:46:22.678Z,25
2018-03-04T09:47:22.347Z,25
2018-03-04T09:48:22.934Z,25
2018-03-04T09:49:22.378Z,25
2018-03-04T09:50:22.385Z,25
2018-03-04T09:51:22.387Z,25
2018-03-04T09:52:22.400Z,25
2018-03-04T09:53:22.412Z,25
2018-03-04T09:54:22.702Z,30
2018-03-04T09:55:23.006Z,30
2018-03-04T09:56:22.724Z,30
2018-03-04T09:57:22.646Z,30
2018-03-04T09:58:23.031Z,30
2018-03-04T09:59:22.458Z,30
2018-03-04T10:00:22.477Z,30
2018-03-04T10:01:22.535Z,30
2018-03-04T10:02:22.501Z,30
2018-03-04T10:03:22.519Z,30
2018-03-04T10:04:22.509Z,30
2018-03-04T10:05:22.518Z,30
2018-03-04T10:06:22.244Z,30
2018-03-04T10:07:22.550Z,30
2018-03-04T10:08:22.575Z,30
2018-03-04T10:09:22.270Z,30
2018-03-04T10:10:22.858Z,30
2018-03-04T10:11:22.623Z,30
2018-03-04T10:12:22.868Z,30
2018-03-04T10:13:22.885Z,30
2018-03-04T10:14:22.890Z,30
2018-03-04T10:15:22.613Z,30
2018-03-04T10:16:23.199Z,30
2018-03-04T10:17:22.353Z,30
2018-03-04T10:18:22.643Z,30
2018-03-04T10:19:23.218Z,30
2018-03-04T10:20:23.230Z,25
2018-03-04T10:21:23.295Z,25
2018-03-04T10:22:22.678Z,25
2018-03-04T10:23:22.439Z,25
2018-03-04T10:24:23.005Z,25
2018-03-04T10:25:23.001Z,25
2018-03-04T10:26:23.358Z,25
2018-03-04T10:27:22.458Z,25
2018-03-04T10:28:23.043Z,25
2018-03-04T10:29:22.757Z,20
2018-03-04T10:30:22.480Z,20
2018-03-04T10:31:23.104Z,20
2018-03-04T10:32:22.784Z,15
2018-03-04T10:33:23.086Z,20
2018-03-04T10:34:22.804Z,15
2018-03-04T10:35:23.095Z,15
2018-03-04T10:36:23.126Z,15
2018-03-04T10:37:23.489Z,15
2018-03-04T10:38:22.578Z,15
2018-03-04T10:39:22.576Z,20
2018-03-04T10:40:23.147Z,25
2018-03-04T10:41:22.936Z,25
2018-03-04T10:42:22.884Z,25
2018-03-04T10:43:23.180Z,25
2018-03-04T10:44:22.910Z,25
2018-03-04T10:45:23.251Z,25
2018-03-04T10:46:23.545Z,25
2018-03-04T10:47:23.508Z,25
2018-03-04T10:48:23.230Z,20
2018-03-04T10:49:23.529Z,20
2018-03-04T10:50:23.549Z,20
2018-03-04T10:51:23.543Z,20
2018-03-04T10:52:22.988Z,20
2018-03-04T10:53:23.562Z,25
2018-03-04T10:54:23.571Z,25
2018-03-04T10:55:23.304Z,25
2018-03-04T10:56:23.309Z,20
2018-03-04T10:57:23.328Z,20
2018-03-04T10:58:23.050Z,20
2018-03-04T10:59:23.622Z,20
2018-03-04T11:00:23.077Z,20
2018-03-04T11:01:23.419Z,20
2018-03-04T11:02:23.660Z,20
2018-03-04T11:03:23.109Z,20
2018-03-04T11:04:23.396Z,20
2018-03-04T11:05:23.697Z,25
2018-03-04T11:06:23.189Z,25
2018-03-04T11:07:23.435Z,25
2018-03-04T11:08:23.733Z,20
2018-03-04T11:09:23.172Z,25
2018-03-04T11:10:23.752Z,25
2018-03-04T11:11:23.529Z,25
2018-03-04T11:12:23.484Z,25
2018-03-04T11:13:23.224Z,25
2018-03-04T11:14:23.513Z,25
2018-03-04T11:15:23.832Z,25
2018-03-04T11:16:22.968Z,30
2018-03-04T11:17:22.974Z,30
2018-03-04T11:18:23.558Z,30
2018-03-04T11:19:22.998Z,30
2018-03-04T11:20:23.580Z,30
2018-03-04T11:21:23.016Z,30
2018-03-04T11:22:23.030Z,30
2018-03-04T11:23:23.605Z,30
2018-03-04T11:24:23.625Z,30
2018-03-04T11:25:23.974Z,30
2018-03-04T11:26:23.377Z,30
2018-03-04T11:27:23.942Z,30
2018-03-04T11:28:23.380Z,30
2018-03-04T11:29:23.396Z,30
2018-03-04T11:30:23.977Z,35
2018-03-04T11:31:23.763Z,30
2018-03-04T11:32:23.716Z,30
2018-03-04T11:33:23.721Z,30
2018-03-04T11:34:23.456Z,30
2018-03-04T11:35:23.779Z,25
2018-03-04T11:36:23.826Z,30
2018-03-04T11:37:23.541Z,30
2018-03-04T11:38:23.782Z,30
2018-03-04T11:39:23.251Z,30
2018-03-04T11:40:23.527Z,25
2018-03-04T11:41:23.301Z,25
2018-03-04T11:42:23.293Z,20
2018-03-04T11:43:23.560Z,20
2018-03-04T11:44:23.852Z,20
2018-03-04T11:45:23.596Z,20
2018-03-04T11:46:23.932Z,20
2018-03-04T11:47:23.895Z,20
2018-03-04T11:48:23.336Z,20
2018-03-04T11:49:23.911Z,20
2018-03-04T11:50:23.928Z,20
2018-03-04T11:51:23.936Z,20
2018-03-04T11:52:23.676Z,20
2018-03-04T11:53:23.688Z,20
2018-03-04T11:54:23.691Z,20
2018-03-04T11:55:24.008Z,20
2018-03-04T11:56:23.773Z,20
2018-03-04T11:57:23.728Z,20
2018-03-04T11:58:23.756Z,20
2018-03-04T11:59:23.761Z,20
2018-03-04T12:00:24.053Z,20
2018-03-04T12:01:23.838Z,20
2018-03-04T12:02:23.512Z,20
2018-03-04T12:03:23.839Z,20
2018-03-04T12:04:23.818Z,25
2018-03-04T12:05:23.270Z,25
2018-03-04T12:06:24.202Z,25
2018-03-04T12:07:23.634Z,25
2018-03-04T12:08:23.605Z,25
2018-03-04T12:09:24.226Z,25
2018-03-04T12:10:24.186Z,20
2018-03-04T12:11:23.969Z,20
2018-03-04T12:12:23.653Z,25
2018-03-04T12:13:23.943Z,25
2018-03-04T12:14:24.239Z,25
2018-03-04T12:15:24.024Z,30
2018-03-04T12:16:23.971Z,30
2018-03-04T12:17:24.034Z,30
2018-03-04T12:18:24.575Z,25
2018-03-04T12:19:24.377Z,25
2018-03-04T12:20:24.316Z,20
2018-03-04T12:21:24.333Z,20
2018-03-04T12:22:24.057Z,20
2018-03-04T12:23:23.789Z,20
2018-03-04T12:24:24.086Z,20
2018-03-04T12:25:24.106Z,15
2018-03-04T12:26:24.678Z,15
2018-03-04T12:27:23.838Z,15
2018-03-04T12:28:24.146Z,15
2018-03-04T12:29:24.142Z,15
2018-03-04T12:30:24.725Z,15
2018-03-04T12:31:24.175Z,15
2018-03-04T12:32:24.241Z,15
2018-03-04T12:33:24.484Z,20
2018-03-04T12:34:24.500Z,20
2018-03-04T12:35:23.937Z,20
2018-03-04T12:36:24.240Z,20
2018-03-04T12:37:24.282Z,20
2018-03-04T12:38:24.268Z,20
2018-03-04T12:39:24.284Z,20
2018-03-04T12:40:24.300Z,20
2018-03-04T12:41:23.746Z,15
2018-03-04T12:42:24.658Z,15
2018-03-04T12:43:24.348Z,15
2018-03-04T12:44:24.640Z,15
2018-03-04T12:45:24.366Z,20
2018-03-04T12:46:24.957Z,20
2018-03-04T12:47:24.728Z,20
2018-03-04T12:48:24.417Z,20
2018-03-04T12:49:24.716Z,15
2018-03-04T12:50:24.717Z,20
2018-03-04T12:51:24.449Z,25
2018-03-04T12:52:24.745Z,30
2018-03-04T12:53:24.493Z,30
2018-03-04T12:54:24.623Z,25
2018-03-04T12:55:24.507Z,20
2018-03-04T12:56:24.878Z,25
2018-03-04T12:57:24.800Z,30
2018-03-04T12:58:24.840Z,35
2018-03-04T12:59:24.788Z,35
2018-03-04T13:00:24.286Z,30
2018-03-04T13:01:25.254Z,25
2018-03-04T13:02:24.887Z,20
2018-03-04T13:03:24.895Z,20
2018-03-04T13:04:24.916Z,20
2018-03-04T13:05:24.931Z,15
2018-03-04T13:06:24.657Z,15
2018-03-04T13:07:24.718Z,15
2018-03-04T13:08:24.701Z,15
2018-03-04T13:09:24.699Z,15
2018-03-04T13:10:25.013Z,15
2018-03-04T13:11:24.468Z,15
2018-03-04T13:12:24.505Z,15
2018-03-04T13:13:25.042Z,20
2018-03-04T13:14:24.779Z,20
2018-03-04T13:15:24.784Z,20
2018-03-04T13:16:24.798Z,20
2018-03-04T13:17:24.810Z,15
2018-03-04T13:18:24.943Z,15
2018-03-04T13:19:24.841Z,15
2018-03-04T13:20:24.852Z,15
2018-03-04T13:21:24.870Z,15
2018-03-04T13:22:24.969Z,15
2018-03-04T13:23:24.912Z,15
2018-03-04T13:24:24.907Z,15
2018-03-04T13:25:24.927Z,15
2018-03-04T13:26:24.938Z,15
2018-03-04T13:27:25.532Z,15
2018-03-04T13:28:25.547Z,15
2018-03-04T13:29:25.569Z,15
2018-03-04T13:30:25.001Z,15
2018-03-04T13:31:25.302Z,15
2018-03-04T13:32:24.746Z,15
2018-03-04T13:33:25.051Z,15
2018-03-04T13:34:25.414Z,15
2018-03-04T13:35:25.361Z,15
2018-03-04T13:36:25.101Z,15
2018-03-04T13:37:25.151Z,15
2018-03-04T13:38:25.396Z,15
2018-03-04T13:39:25.414Z,15
2018-03-04T13:40:25.480Z,15
2018-03-04T13:41:25.157Z,15
2018-03-04T13:42:25.176Z,15
2018-03-04T13:43:25.187Z,15
2018-03-04T13:44:25.202Z,15
2018-03-04T13:45:25.515Z,15
2018-03-04T13:46:25.965Z,15
2018-03-04T13:47:24.968Z,15
2018-03-04T13:48:25.836Z,15
2018-03-04T13:49:25.840Z,15
2018-03-04T13:50:24.744Z,15
2018-03-04T13:51:25.896Z,15
2018-03-04T13:52:25.374Z,15
2018-03-04T13:53:25.907Z,15
2018-03-04T13:54:25.656Z,15
2018-03-04T13:55:25.934Z,15
2018-03-04T13:56:25.401Z,15
2018-03-04T13:57:25.962Z,15
2018-03-04T13:58:25.974Z,15
2018-03-04T13:59:25.705Z,15
2018-03-04T14:00:25.725Z,15
2018-03-04T14:01:26.196Z,15
2018-03-04T14:02:26.036Z,15
2018-03-04T14:03:25.783Z,15
2018-03-04T14:04:26.061Z,15
2018-03-04T14:05:25.515Z,15
2018-03-04T14:06:25.814Z,15
2018-03-04T14:07:25.608Z,15
2018-03-04T14:08:25.841Z,15
2018-03-04T14:09:25.332Z,15
2018-03-04T14:10:26.168Z,15
2018-03-04T14:11:25.885Z,15
2018-03-04T14:12:25.933Z,15
2018-03-04T14:13:25.924Z,15
2018-03-04T14:14:25.389Z,15
2018-03-04T14:15:25.671Z,15
2018-03-04T14:16:26.241Z,15
2018-03-04T14:17:25.696Z,15
2018-03-04T14:18:25.710Z,15
2018-03-04T14:19:26.017Z,15
2018-03-04T14:20:25.456Z,15
2018-03-04T14:21:26.043Z,15
2018-03-04T14:22:25.816Z,15
2018-03-04T14:23:25.782Z,15
2018-03-04T14:24:26.089Z,15
2018-03-04T14:25:26.146Z,15
2018-03-04T14:26:25.825Z,15
2018-03-04T14:27:26.459Z,15
2018-03-04T14:28:25.853Z,15
2018-03-04T14:29:26.148Z,15
2018-03-04T14:30:26.470Z,15
2018-03-04T14:31:25.913Z,15
2018-03-04T14:32:26.529Z,15